Time;durP1;ratioP1;P1;durP2;ratioP2;P2;SDS_P1;SDS_P2;PMS_P1;PMS_P2;Temp;Humidity;BMP_temperature;BMP_pressure;BME280_temperature;BME280_humidity;BME280_pressure;Samples;Min_cycle;Max_cycle;Signal;HPM_P1;HPM_P2
2022/10/27 00:00:15;;;;;;;41.05;20.17;;;;;;;8.56;62.07;94349.97;5053004;28;20433;-35
2022/10/27 00:02:41;;;;;;;30.40;15.20;;;;;;;8.60;62.43;94350.41;5053059;28;20404;-35
2022/10/27 00:05:06;;;;;;;24.35;12.30;;;;;;;8.58;62.79;94346.69;5052790;28;20059;-36
2022/10/27 00:07:36;;;;;;;16.02;8.85;;;;;;;8.83;61.94;94357.22;5052611;28;20147;-35
2022/10/27 00:10:01;;;;;;;19.55;8.98;;;;;;;8.93;61.62;94352.88;5053031;28;20025;-36
2022/10/27 00:12:29;;;;;;;17.67;8.50;;;;;;;9.07;59.73;94353.72;5052759;28;20482;-35
2022/10/27 00:14:54;;;;;;;11.63;6.63;;;;;;;9.07;58.97;94359.97;5052653;28;20036;-35
2022/10/27 00:17:19;;;;;;;12.50;8.40;;;;;;;8.84;59.09;94349.69;5052601;28;20021;-35
2022/10/27 00:19:45;;;;;;;12.57;7.55;;;;;;;8.88;59.09;94355.69;5052585;28;20032;-35
2022/10/27 00:22:10;;;;;;;17.92;9.02;;;;;;;8.70;60.21;94348.84;5052844;28;20021;-35
2022/10/27 00:24:36;;;;;;;14.18;8.10;;;;;;;8.84;60.10;94350.44;5052787;28;20477;-36
2022/10/27 00:27:01;;;;;;;10.55;6.75;;;;;;;8.66;61.19;94350.38;5052048;28;20052;-36
2022/10/27 00:29:27;;;;;;;18.98;8.40;;;;;;;8.72;61.22;94353.81;5063729;28;20043;-36
2022/10/27 00:31:52;;;;;;;20.05;7.57;;;;;;;8.74;61.59;94348.53;5072290;28;20077;-35
2022/10/27 00:34:17;;;;;;;16.33;7.22;;;;;;;8.75;61.65;94350.06;5072279;28;20028;-35
2022/10/27 00:36:43;;;;;;;16.60;7.82;;;;;;;8.79;61.50;94348.47;5072212;28;20025;-35
2022/10/27 00:39:08;;;;;;;12.95;8.13;;;;;;;8.74;62.04;94351.31;5057633;28;20036;-35
2022/10/27 00:41:36;;;;;;;22.50;9.40;;;;;;;8.68;62.28;94347.84;5052406;28;20029;-35
2022/10/27 00:44:30;;;;;;;26.23;12.02;;;;;;;8.81;61.00;94354.25;5051467;28;20028;-35
2022/10/27 00:46:56;;;;;;;19.17;9.80;;;;;;;8.40;61.71;94345.34;5052055;28;20509;-35
2022/10/27 00:49:26;;;;;;;19.92;11.05;;;;;;;8.27;62.49;94345.22;5034528;28;20028;-35
2022/10/27 00:51:58;;;;;;;17.90;9.48;;;;;;;8.44;62.00;94345.06;5034172;28;20112;-35
2022/10/27 00:54:26;;;;;;;22.50;10.00;;;;;;;8.51;61.65;94348.00;5052218;28;20047;-35
2022/10/27 00:56:53;;;;;;;17.45;10.05;;;;;;;8.58;60.91;94333.66;5043129;28;20035;-35
2022/10/27 00:59:19;;;;;;;14.45;8.30;;;;;;;8.62;61.23;94347.91;5072105;28;20031;-35
2022/10/27 01:01:45;;;;;;;20.00;9.00;;;;;;;8.77;61.30;94342.03;5047487;28;20409;-35
2022/10/27 01:04:11;;;;;;;13.73;7.82;;;;;;;8.69;61.83;94341.81;5033876;28;20045;-35
2022/10/27 01:06:36;;;;;;;15.48;8.52;;;;;;;8.78;61.35;94340.75;5051711;28;20501;-35
2022/10/27 01:09:02;;;;;;;16.15;9.23;;;;;;;8.71;61.54;94344.81;5051898;28;20033;-36
2022/10/27 01:11:28;;;;;;;17.52;9.27;;;;;;;8.54;61.77;94335.22;5051905;28;20028;-35
2022/10/27 01:13:53;;;;;;;28.40;11.02;;;;;;;8.37;62.25;94338.13;5051503;28;20053;-35
2022/10/27 01:16:25;;;;;;;21.42;10.75;;;;;;;8.38;62.26;94345.84;5051575;28;20032;-35
2022/10/27 01:19:27;;;;;;;17.25;8.80;;;;;;;8.60;61.64;94338.69;5051446;28;20060;-35
2022/10/27 01:22:05;;;;;;;16.40;8.13;;;;;;;8.53;62.17;94344.75;5051375;28;20040;-35
2022/10/27 01:24:55;;;;;;;21.50;9.48;;;;;;;8.39;62.63;94346.59;5051602;28;20159;-35
2022/10/27 01:27:24;;;;;;;19.35;10.68;;;;;;;8.23;63.31;94350.94;5051233;28;20064;-35
2022/10/27 01:30:02;;;;;;;19.15;9.30;;;;;;;8.36;63.22;94347.63;5065711;28;20130;-35
2022/10/27 01:32:33;;;;;;;18.00;9.38;;;;;;;8.18;63.80;94353.75;5053635;28;20040;-35
2022/10/27 01:34:58;;;;;;;17.23;10.20;;;;;;;8.37;63.32;94346.38;5060006;28;20144;-35
2022/10/27 01:37:33;;;;;;;20.48;11.23;;;;;;;8.32;63.42;94353.41;5051037;28;20477;-35
2022/10/27 01:40:03;;;;;;;19.45;10.05;;;;;;;8.40;62.99;94346.06;5051168;28;20029;-35
2022/10/27 01:42:49;;;;;;;20.65;10.38;;;;;;;8.30;63.38;94355.16;5033271;28;20029;-36
2022/10/27 01:45:20;;;;;;;27.63;12.38;;;;;;;8.31;63.38;94348.44;5050801;28;20032;-35
2022/10/27 01:47:46;;;;;;;22.35;10.00;;;;;;;8.24;63.34;94357.19;5033143;28;20029;-35
2022/10/27 01:50:15;;;;;;;17.25;8.73;;;;;;;8.30;63.79;94355.16;5033370;28;20035;-35
2022/10/27 01:52:44;;;;;;;17.60;8.60;;;;;;;8.08;64.06;94353.31;5051055;28;20104;-35
2022/10/27 01:55:15;;;;;;;21.85;10.30;;;;;;;8.15;64.11;94350.00;5050705;28;20032;-35
2022/10/27 01:58:10;;;;;;;19.85;10.65;;;;;;;8.27;63.25;94356.22;5066453;28;20020;-35
2022/10/27 02:01:16;;;;;;;23.10;11.10;;;;;;;8.32;63.86;94358.16;5019560;28;20119;-35
2022/10/27 02:04:19;;;;;;;18.83;9.18;;;;;;;8.27;63.60;94356.22;5032748;28;20069;-36
2022/10/27 02:07:19;;;;;;;16.67;8.07;;;;;;;8.15;64.50;94354.75;5016847;28;20040;-36
2022/10/27 02:10:03;;;;;;;12.15;7.43;;;;;;;8.04;64.42;94341.06;5050868;28;20047;-35
2022/10/27 02:12:37;;;;;;;11.15;5.63;;;;;;;8.27;64.68;94361.72;5034414;28;20079;-35
2022/10/27 02:15:06;;;;;;;9.75;4.95;;;;;;;8.15;64.92;94360.25;5049303;28;20111;-35
2022/10/27 02:17:35;;;;;;;6.50;3.85;;;;;;;8.09;65.44;94356.81;5032729;28;20047;-36
2022/10/27 02:20:04;;;;;;;6.40;4.55;;;;;;;8.05;65.09;94346.09;5032666;28;20078;-35
2022/10/27 02:22:31;;;;;;;13.27;7.55;;;;;;;8.26;64.83;94358.22;5032659;28;20028;-35
2022/10/27 02:24:56;;;;;;;30.48;14.65;;;;;;;8.37;64.27;94360.88;5050996;28;20467;-35
2022/10/27 02:27:34;;;;;;;33.05;16.70;;;;;;;8.37;63.73;94366.38;5070511;28;20033;-35
2022/10/27 02:30:02;;;;;;;30.75;13.15;;;;;;;8.25;63.96;94369.72;5037455;28;20036;-35
2022/10/27 02:32:28;;;;;;;22.52;13.45;;;;;;;8.41;63.37;94366.09;5052982;28;20428;-35
2022/10/27 02:34:55;;;;;;;35.08;14.00;;;;;;;8.30;63.68;94366.94;5052820;28;20031;-36
2022/10/27 02:37:36;;;;;;;23.98;10.73;;;;;;;8.07;64.60;94375.81;5052344;28;20020;-35
2022/10/27 02:40:02;;;;;;;22.40;12.57;;;;;;;7.92;64.71;94359.69;5070528;28;20028;-36
2022/10/27 02:42:28;;;;;;;19.58;10.48;;;;;;;7.89;64.96;94357.94;5070435;28;20025;-36
2022/10/27 02:44:53;;;;;;;11.77;7.85;;;;;;;7.99;65.23;94372.13;5070063;28;20035;-35
2022/10/27 02:47:19;;;;;;;13.32;6.53;;;;;;;7.88;65.84;94375.69;5070230;28;20024;-35
2022/10/27 02:49:44;;;;;;;7.97;4.85;;;;;;;7.93;65.92;94371.41;5070041;28;20036;-35
2022/10/27 02:52:10;;;;;;;6.35;4.47;;;;;;;7.92;65.74;94372.66;5070494;28;20024;-35
2022/10/27 02:54:35;;;;;;;15.35;8.38;;;;;;;7.94;65.95;94359.16;5070348;28;20059;-35
2022/10/27 02:57:01;;;;;;;18.08;10.63;;;;;;;8.10;65.21;94372.06;5060053;28;20017;-35
2022/10/27 02:59:26;;;;;;;22.95;9.95;;;;;;;8.18;64.98;94389.50;5050047;28;20025;-35
2022/10/27 03:01:52;;;;;;;21.95;10.73;;;;;;;8.26;64.84;94387.72;5049932;28;20090;-36
2022/10/27 03:04:17;;;;;;;16.70;9.18;;;;;;;8.20;65.12;94378.75;5049996;28;20059;-35
2022/10/27 03:06:43;;;;;;;19.98;9.82;;;;;;;8.11;65.56;94381.78;5050555;28;20021;-35
2022/10/27 03:09:08;;;;;;;21.25;10.48;;;;;;;8.10;66.02;94383.06;5053954;28;20467;-35
2022/10/27 03:11:34;;;;;;;16.42;8.25;;;;;;;8.28;65.14;94396.97;5053839;28;20032;-35
2022/10/27 03:13:59;;;;;;;17.67;9.20;;;;;;;8.36;65.04;94388.88;5053843;28;20031;-35
2022/10/27 03:16:24;;;;;;;22.73;12.15;;;;;;;8.25;65.16;94397.22;5054079;28;20155;-36
2022/10/27 03:18:50;;;;;;;24.65;13.90;;;;;;;8.34;64.55;94388.66;5053808;28;20485;-36
2022/10/27 03:21:15;;;;;;;30.58;15.60;;;;;;;8.29;64.67;94392.22;5053688;28;20025;-35
2022/10/27 03:23:41;;;;;;;27.10;16.30;;;;;;;8.14;64.86;94389.03;5053658;28;20025;-35
2022/10/27 03:26:06;;;;;;;23.38;12.40;;;;;;;8.24;65.05;94387.47;5053298;28;20084;-35
2022/10/27 03:28:34;;;;;;;16.77;10.50;;;;;;;8.21;64.96;94396.72;5069275;28;20086;-35
2022/10/27 03:31:03;;;;;;;21.67;8.77;;;;;;;8.32;64.72;94410.44;5053528;28;20650;-35
2022/10/27 03:33:29;;;;;;;19.05;9.63;;;;;;;8.47;63.59;94401.84;5053800;28;20439;-35
2022/10/27 03:35:54;;;;;;;24.55;12.85;;;;;;;8.36;63.77;94386.13;5053678;28;20099;-36
2022/10/27 03:38:20;;;;;;;23.88;12.50;;;;;;;8.34;64.65;94396.91;5053410;28;20090;-35
2022/10/27 03:40:45;;;;;;;26.17;11.75;;;;;;;8.24;65.28;94401.97;5053585;28;20483;-35
2022/10/27 03:43:11;;;;;;;15.43;8.85;;;;;;;8.32;65.85;94402.19;5053246;28;20471;-35
2022/10/27 03:45:36;;;;;;;22.10;9.30;;;;;;;8.22;66.12;94406.47;5053493;28;20025;-35
2022/10/27 03:48:11;;;;;;;29.63;15.27;;;;;;;8.21;66.15;94411.22;5053389;28;20028;-35
2022/10/27 03:50:37;;;;;;;21.88;12.98;;;;;;;8.25;65.73;94408.97;5053114;28;20552;-35
2022/10/27 03:53:03;;;;;;;22.30;10.70;;;;;;;8.18;66.60;94408.75;5053377;28;20108;-35
2022/10/27 03:55:29;;;;;;;17.10;9.27;;;;;;;8.06;66.84;94399.06;5053088;28;20033;-35
2022/10/27 03:57:55;;;;;;;17.65;10.27;;;;;;;8.20;66.85;94417.25;5053283;28;20031;-35
2022/10/27 04:00:21;;;;;;;28.73;13.88;;;;;;;8.33;66.29;94418.19;5053244;28;20428;-35
2022/10/27 04:02:47;;;;;;;21.40;11.57;;;;;;;8.45;65.23;94412.59;5053116;28;20025;-35
2022/10/27 04:05:12;;;;;;;19.85;11.05;;;;;;;8.43;64.82;94396.59;5031762;28;20440;-35
2022/10/27 04:07:38;;;;;;;18.80;9.70;;;;;;;8.42;64.87;94414.38;5033132;28;20022;-35
2022/10/27 04:10:04;;;;;;;24.55;13.45;;;;;;;8.29;65.50;94414.94;5033160;28;20495;-35
2022/10/27 04:12:29;;;;;;;30.95;15.88;;;;;;;8.46;65.24;94414.84;5033159;28;20048;-35
2022/10/27 04:14:55;;;;;;;33.88;17.75;;;;;;;8.56;65.08;94420.75;5032795;28;20494;-36
2022/10/27 04:17:20;;;;;;;48.03;15.20;;;;;;;8.66;64.53;94419.97;5033079;28;20076;-35
2022/10/27 04:19:46;;;;;;;19.13;11.85;;;;;;;8.66;63.64;94428.22;5031680;28;20029;-35
2022/10/27 04:22:11;;;;;;;21.63;10.15;;;;;;;8.60;63.43;94426.75;5032730;28;20405;-35
2022/10/27 04:24:40;;;;;;;17.42;11.68;;;;;;;8.58;63.59;94430.00;5050811;28;20058;-35
2022/10/27 04:27:06;;;;;;;24.33;13.02;;;;;;;8.53;63.98;94428.06;5032578;28;20044;-35
2022/10/27 04:29:32;;;;;;;29.90;14.18;;;;;;;8.46;64.02;94414.84;5044424;28;20033;-35
2022/10/27 04:31:57;;;;;;;24.98;13.60;;;;;;;8.36;64.66;94428.16;5052438;28;20043;-35
2022/10/27 04:34:23;;;;;;;28.35;14.57;;;;;;;8.28;65.13;94429.22;5052372;28;20083;-35
2022/10/27 04:36:48;;;;;;;29.90;14.90;;;;;;;8.28;65.50;94432.72;5052365;28;20024;-35
2022/10/27 04:39:14;;;;;;;24.48;13.05;;;;;;;8.13;66.07;94432.28;5052561;28;20032;-35
2022/10/27 04:41:40;;;;;;;28.13;15.30;;;;;;;8.15;66.22;94431.78;5052552;28;20032;-35
2022/10/27 04:44:05;;;;;;;26.48;14.95;;;;;;;8.08;66.54;94427.56;5052144;28;20033;-35
2022/10/27 04:46:31;;;;;;;34.33;16.77;;;;;;;8.23;66.33;94427.22;5052125;28;20116;-35
2022/10/27 04:48:56;;;;;;;81.47;41.13;;;;;;;8.11;66.21;94434.81;5052341;28;20098;-36
2022/10/27 04:51:22;;;;;;;73.57;33.72;;;;;;;8.09;66.51;94436.56;5052048;28;20035;-36
2022/10/27 04:53:47;;;;;;;64.18;33.00;;;;;;;8.00;66.76;94436.84;5052102;28;20071;-36
2022/10/27 04:56:13;;;;;;;62.38;27.90;;;;;;;8.01;66.73;94443.88;5046973;28;20079;-35
2022/10/27 04:58:38;;;;;;;62.42;31.90;;;;;;;7.94;66.94;94430.66;5032163;28;20055;-35
2022/10/27 05:01:08;;;;;;;51.55;24.63;;;;;;;8.04;66.59;94451.09;5033225;28;20021;-35
2022/10/27 05:03:33;;;;;;;45.10;22.40;;;;;;;7.96;66.88;94447.38;5053604;28;20090;-35
2022/10/27 05:05:59;;;;;;;39.40;21.45;;;;;;;7.92;67.14;94444.91;5071761;28;20469;-35
2022/10/27 05:08:25;;;;;;;57.55;25.73;;;;;;;7.86;66.98;94448.94;5071539;28;20024;-35
2022/10/27 05:10:50;;;;;;;64.93;32.47;;;;;;;7.87;67.15;94450.41;5071717;28;20051;-36
2022/10/27 05:13:16;;;;;;;189.10;35.22;;;;;;;7.93;67.16;94446.41;5071853;28;20051;-35
2022/10/27 05:15:41;;;;;;;71.93;28.05;;;;;;;7.87;67.33;94448.44;5071843;28;20511;-35
2022/10/27 05:18:07;;;;;;;43.42;23.58;;;;;;;7.94;67.15;94453.41;5071731;28;20396;-35
2022/10/27 05:20:32;;;;;;;33.10;17.45;;;;;;;8.04;67.10;94451.84;5055570;28;20099;-35
2022/10/27 05:22:57;;;;;;;44.95;18.27;;;;;;;8.04;67.38;94457.34;5051412;28;20029;-35
2022/10/27 05:25:23;;;;;;;38.22;18.05;;;;;;;7.92;67.61;94464.16;5051029;28;20021;-35
2022/10/27 05:27:48;;;;;;;37.33;17.83;;;;;;;8.00;67.80;94469.84;5051550;28;20024;-35
2022/10/27 05:30:14;;;;;;;37.45;19.05;;;;;;;8.12;66.79;94463.78;5068900;28;20436;-35
2022/10/27 05:32:40;;;;;;;48.03;22.73;;;;;;;8.27;66.59;94466.25;5071195;28;20396;-35
2022/10/27 05:35:06;;;;;;;53.38;25.23;;;;;;;8.31;65.68;94474.97;5071388;28;20017;-35
2022/10/27 05:37:31;;;;;;;57.85;27.17;;;;;;;8.36;65.70;94474.19;5071044;28;20040;-35
2022/10/27 05:39:57;;;;;;;59.08;26.98;;;;;;;8.28;66.22;94478.75;5071017;28;20035;-35
2022/10/27 05:42:22;;;;;;;53.30;27.83;;;;;;;8.09;66.26;94453.81;5071003;28;20023;-35
2022/10/27 05:44:48;;;;;;;91.63;43.03;;;;;;;8.42;65.90;94479.66;5071243;28;20021;-35
2022/10/27 05:47:13;;;;;;;101.90;46.17;;;;;;;8.25;65.90;94468.75;5071157;28;20051;-35
2022/10/27 05:49:39;;;;;;;147.20;53.00;;;;;;;8.31;66.05;94484.00;5070892;28;20042;-35
2022/10/27 05:52:04;;;;;;;97.95;43.03;;;;;;;8.37;66.43;94487.47;5070905;28;20082;-36
2022/10/27 05:54:29;;;;;;;102.78;43.78;;;;;;;8.59;65.64;94505.84;5070831;28;20491;-35
2022/10/27 05:56:55;;;;;;;59.30;32.03;;;;;;;8.69;64.96;94496.00;5061208;28;20021;-36
2022/10/27 05:59:20;;;;;;;54.15;29.65;;;;;;;8.69;64.94;94495.25;5050819;28;20032;-36
2022/10/27 06:01:46;;;;;;;56.67;28.38;;;;;;;8.88;64.74;94510.63;5057787;28;20526;-35
2022/10/27 06:04:11;;;;;;;56.50;30.23;;;;;;;8.94;63.88;94503.06;5070477;28;20513;-35
2022/10/27 06:06:37;;;;;;;54.40;28.98;;;;;;;9.00;63.13;94509.31;5070406;28;20035;-35
2022/10/27 06:09:03;;;;;;;48.45;26.75;;;;;;;8.95;63.25;94501.81;5070800;28;20059;-35
2022/10/27 06:11:29;;;;;;;55.92;26.20;;;;;;;8.97;63.54;94512.31;5070503;28;20036;-36
2022/10/27 06:13:54;;;;;;;49.85;24.92;;;;;;;8.90;63.54;94491.59;5070713;28;20024;-35
2022/10/27 06:16:20;;;;;;;48.28;25.88;;;;;;;8.96;64.01;94510.84;5058613;28;20024;-35
2022/10/27 06:18:46;;;;;;;57.88;21.98;;;;;;;8.99;63.80;94501.53;5050650;28;20029;-35
2022/10/27 06:21:12;;;;;;;71.22;27.35;;;;;;;9.10;64.83;94523.47;5050695;28;20032;-35
2022/10/27 06:23:39;;;;;;;52.05;20.48;;;;;;;9.26;64.25;94524.59;5050551;28;20021;-36
2022/10/27 06:26:04;;;;;;;101.10;34.00;;;;;;;9.53;63.35;94529.88;5061218;28;20412;-36
2022/10/27 06:28:30;;;;;;;250.48;50.88;;;;;;;9.92;62.82;94529.47;5066953;28;20025;-35
2022/10/27 06:30:55;;;;;;;121.72;43.17;;;;;;;10.30;61.66;94536.59;5050499;28;20032;-36
2022/10/27 06:33:21;;;;;;;78.53;37.72;;;;;;;10.93;59.81;94535.97;5050549;28;20409;-36
2022/10/27 06:35:46;;;;;;;90.35;39.85;;;;;;;11.76;57.68;94540.16;5050469;28;20028;-36
2022/10/27 06:38:15;;;;;;;70.20;37.20;;;;;;;12.55;55.77;94537.38;5050247;28;20551;-36
2022/10/27 06:40:44;;;;;;;;;;;;;;;13.34;53.07;94529.59;5050749;28;20032;-36
2022/10/27 06:43:13;;;;;;;44.20;23.85;;;;;;;13.76;51.76;94524.75;5049475;28;19915;-36
2022/10/27 06:45:39;;;;;;;55.75;28.50;;;;;;;14.32;50.71;94538.66;5032606;28;20511;-36
2022/10/27 06:48:07;;;;;;;55.55;31.48;;;;;;;15.56;48.30;94532.44;5050014;28;20017;-36
2022/10/27 06:50:33;;;;;;;127.78;49.85;;;;;;;17.06;44.81;94525.84;5050122;28;20035;-36
2022/10/27 06:53:00;;;;;;;143.23;72.47;;;;;;;17.89;42.08;94521.75;5050078;28;20029;-36
2022/10/27 06:55:26;;;;;;;83.32;45.05;;;;;;;17.82;42.18;94531.69;5050007;28;20025;-36
2022/10/27 06:57:51;;;;;;;181.02;82.82;;;;;;;17.44;42.54;94536.78;5049976;28;20021;-36
2022/10/27 07:00:17;;;;;;;132.73;66.45;;;;;;;17.16;43.25;94531.53;5049969;28;20094;-36
2022/10/27 07:02:43;;;;;;;91.53;48.95;;;;;;;17.10;43.34;94536.59;5049847;28;20024;-36
2022/10/27 07:05:08;;;;;;;94.00;33.17;;;;;;;17.51;42.76;94540.84;5049806;28;20049;-36
2022/10/27 07:07:34;;;;;;;39.95;23.95;;;;;;;18.02;42.03;94541.78;5050085;28;20045;-36
2022/10/27 07:09:59;;;;;;;32.25;18.55;;;;;;;18.88;41.13;94531.41;5050219;28;20108;-37
2022/10/27 07:12:25;;;;;;;42.58;14.30;;;;;;;19.90;38.83;94540.88;5060281;28;20484;-37
2022/10/27 07:14:50;;;;;;;72.68;14.98;;;;;;;20.33;37.86;94544.88;5070141;28;20415;-36
2022/10/27 07:17:16;;;;;;;36.95;13.82;;;;;;;20.35;37.28;94537.34;5070155;28;20489;-36
2022/10/27 07:19:41;;;;;;;19.05;12.00;;;;;;;20.04;37.85;94532.81;5070125;28;20412;-36
2022/10/27 07:22:07;;;;;;;18.42;10.68;;;;;;;20.74;36.73;94532.53;5069896;28;20082;-37
2022/10/27 07:24:32;;;;;;;21.65;9.35;;;;;;;21.71;35.33;94533.88;5070037;28;20027;-37
2022/10/27 07:26:57;;;;;;;12.73;7.40;;;;;;;22.80;32.80;94535.75;5069382;28;20025;-37
2022/10/27 07:29:23;;;;;;;11.93;8.30;;;;;;;23.56;31.85;94534.34;5059129;28;20017;-37
2022/10/27 07:31:48;;;;;;;13.20;7.88;;;;;;;24.39;30.91;94540.19;5049974;28;20503;-37
2022/10/27 07:34:14;;;;;;;14.50;8.60;;;;;;;25.31;29.36;94545.66;5049950;28;20029;-35
2022/10/27 07:36:39;;;;;;;14.13;7.30;;;;;;;25.74;28.29;94545.22;5049938;28;20400;-35
2022/10/27 07:39:05;;;;;;;14.20;7.65;;;;;;;26.79;27.33;94535.31;5049696;28;20412;-35
2022/10/27 07:41:31;;;;;;;14.80;6.65;;;;;;;27.58;25.55;94545.66;5049994;28;20103;-35
2022/10/27 07:43:56;;;;;;;12.82;7.68;;;;;;;27.47;25.79;94551.47;5049875;28;20254;-35
2022/10/27 07:46:22;;;;;;;22.48;13.15;;;;;;;26.63;26.11;94536.56;5049917;28;20028;-35
2022/10/27 07:48:47;;;;;;;15.60;9.95;;;;;;;25.81;27.33;94547.03;5049527;28;20481;-35
2022/10/27 07:51:13;;;;;;;13.93;8.20;;;;;;;24.78;28.75;94556.03;5049528;28;20035;-35
2022/10/27 07:53:38;;;;;;;13.75;8.63;;;;;;;24.69;29.36;94554.03;5051542;28;20024;-35
2022/10/27 07:56:04;;;;;;;24.92;8.48;;;;;;;24.43;30.03;94552.47;5053319;28;20481;-35
2022/10/27 07:58:29;;;;;;;3.80;3.22;;;;;;;24.93;28.92;94551.91;5053379;28;20500;-35
2022/10/27 08:00:56;;;;;;;8.85;4.05;;;;;;;25.97;27.82;94550.72;5052936;28;20024;-35
2022/10/27 08:03:29;;;;;;;7.85;4.60;;;;;;;27.18;26.53;94557.81;5053109;28;20013;-37
2022/10/27 08:05:57;;;;;;;9.60;4.85;;;;;;;28.18;24.50;94547.78;5053207;28;20130;-36
2022/10/27 08:08:22;;;;;;;6.85;4.13;;;;;;;28.64;23.93;94559.81;5052686;28;20167;-35
2022/10/27 08:10:48;;;;;;;8.73;6.10;;;;;;;28.65;24.08;94555.59;5052854;28;20041;-35
2022/10/27 08:13:14;;;;;;;6.10;3.80;;;;;;;28.35;23.36;94558.50;5052694;28;20024;-35
2022/10/27 08:15:41;;;;;;;3.95;2.92;;;;;;;27.57;24.40;94558.38;5053046;28;20033;-35
2022/10/27 08:18:07;;;;;;;3.88;2.67;;;;;;;26.35;25.46;94564.16;5052625;28;20584;-35
2022/10/27 08:20:36;;;;;;;5.65;2.70;;;;;;;25.39;27.03;94563.06;5052683;28;20100;-34
2022/10/27 08:23:03;;;;;;;4.15;2.75;;;;;;;24.86;27.89;94564.25;5052611;28;20520;-34
2022/10/27 08:25:29;;;;;;;2.95;2.20;;;;;;;24.03;29.63;94553.56;5058494;28;20020;-34
2022/10/27 08:27:55;;;;;;;4.22;2.60;;;;;;;23.88;30.71;94556.13;5072433;28;20024;-34
2022/10/27 08:30:21;;;;;;;2.53;1.67;;;;;;;24.89;28.97;94565.06;5053849;28;20428;-34
2022/10/27 08:32:47;;;;;;;5.57;2.97;;;;;;;26.23;27.88;94560.66;5052397;28;20108;-35
2022/10/27 08:35:13;;;;;;;5.10;3.10;;;;;;;26.95;26.32;94549.56;5052441;28;20489;-35
2022/10/27 08:37:39;;;;;;;8.15;2.65;;;;;;;27.95;25.35;94555.88;5052284;28;20070;-35
2022/10/27 08:40:05;;;;;;;3.40;2.80;;;;;;;27.72;24.89;94551.28;5052637;28;20025;-35
2022/10/27 08:42:35;;;;;;;9.02;6.13;;;;;;;28.08;24.87;94544.50;5052191;28;20029;-35
2022/10/27 08:45:08;;;;;;;3.72;2.90;;;;;;;28.74;23.81;94546.75;5052201;28;20035;-35
2022/10/27 08:47:33;;;;;;;8.52;2.53;;;;;;;29.28;22.68;94551.25;5034342;28;20025;-35
2022/10/27 08:50:13;;;;;;;3.60;1.75;;;;;;;29.57;22.34;94553.13;5034342;28;20036;-35
2022/10/27 08:52:54;;;;;;;2.50;1.80;;;;;;;30.10;22.31;94548.16;5052028;28;20564;-35
2022/10/27 08:55:26;;;;;;;5.10;3.08;;;;;;;30.24;21.52;94547.94;5051979;28;20488;-35
2022/10/27 08:57:57;;;;;;;2.55;1.48;;;;;;;30.22;20.65;94550.72;5034149;28;20029;-35
2022/10/27 09:00:23;;;;;;;1.60;1.30;;;;;;;30.71;20.74;94536.91;5051862;28;20033;-35
2022/10/27 09:03:09;;;;;;;33.28;19.08;;;;;;;30.83;20.66;94545.16;5051706;28;20029;-35
2022/10/27 09:06:06;;;;;;;1.88;1.67;;;;;;;30.99;19.40;94549.34;5066781;28;20139;-35
2022/10/27 09:08:50;;;;;;;3.65;2.30;;;;;;;30.93;19.71;94540.59;5071928;28;20435;-35
2022/10/27 09:11:25;;;;;;;2.08;1.38;;;;;;;30.98;19.25;94538.59;5071654;28;20056;-35
2022/10/27 09:14:00;;;;;;;1.83;1.13;;;;;;;31.05;19.60;94543.88;5071896;28;20035;-35
2022/10/27 09:16:39;;;;;;;2.13;1.20;;;;;;;31.41;18.73;94533.72;5071869;28;20082;-35
2022/10/27 09:19:09;;;;;;;2.08;1.20;;;;;;;30.98;19.35;94542.19;5071535;28;20021;-35
2022/10/27 09:21:36;;;;;;;1.48;1.08;;;;;;;31.12;18.07;94536.97;5053949;28;20035;-35
2022/10/27 09:24:06;;;;;;;3.63;1.00;;;;;;;31.46;18.17;94533.84;5071387;28;20028;-35
2022/10/27 09:26:32;;;;;;;3.88;1.40;;;;;;;31.42;17.74;94528.75;5056300;28;20529;-35
2022/10/27 09:29:01;;;;;;;7.72;4.00;;;;;;;31.45;17.48;94533.09;5041002;28;20035;-35
2022/10/27 09:31:40;;;;;;;3.45;1.00;;;;;;;31.08;17.17;94527.56;5071269;28;20291;-35
2022/10/27 09:34:20;;;;;;;1.75;0.77;;;;;;;31.16;17.61;94527.81;5071475;28;20024;-35
2022/10/27 09:36:46;;;;;;;4.88;1.02;;;;;;;31.28;17.25;94525.38;5053643;28;20682;-35
2022/10/27 09:39:11;;;;;;;0.60;0.60;;;;;;;31.44;17.17;94523.09;5053668;28;20165;-35
2022/10/27 09:41:37;;;;;;;1.50;0.95;;;;;;;31.53;16.65;94527.69;5071009;28;20512;-35
2022/10/27 09:44:03;;;;;;;1.02;0.60;;;;;;;31.40;15.73;94531.50;5053470;28;20032;-35
2022/10/27 09:46:29;;;;;;;2.05;0.80;;;;;;;31.37;16.78;94518.53;5070969;28;20107;-35
2022/10/27 09:49:00;;;;;;;1.73;1.10;;;;;;;31.41;17.02;94519.44;5053044;28;20112;-35
2022/10/27 09:51:39;;;;;;;0.93;0.55;;;;;;;31.72;16.37;94512.59;5070928;28;20035;-34
2022/10/27 09:54:04;;;;;;;3.50;1.65;;;;;;;31.41;17.60;94515.84;5053057;28;20107;-34
2022/10/27 09:56:32;;;;;;;1.33;1.23;;;;;;;31.05;18.52;94512.50;5064989;28;20112;-35
2022/10/27 09:59:03;;;;;;;0.90;0.80;;;;;;;31.43;18.06;94507.34;5033058;28;20503;-35
2022/10/27 10:01:38;;;;;;;1.63;1.08;;;;;;;31.28;18.08;94511.09;5059237;28;20098;-35
2022/10/27 10:04:05;;;;;;;6.22;3.53;;;;;;;31.29;18.52;94516.16;5050574;28;20540;-35
2022/10/27 10:06:35;;;;;;;2.17;1.55;;;;;;;31.48;17.86;94514.66;5033248;28;20049;-35
2022/10/27 10:09:47;;;;;;;4.25;2.22;;;;;;;31.28;18.39;94514.69;5032803;28;20480;-35
2022/10/27 10:12:24;;;;;;;3.83;2.67;;;;;;;31.47;17.93;94516.03;5045822;28;20140;-35
2022/10/27 10:15:13;;;;;;;2.55;1.30;;;;;;;31.37;17.66;94510.72;5050841;28;20031;-35
2022/10/27 10:17:55;;;;;;;4.40;1.30;;;;;;;31.71;17.92;94507.53;5050300;28;20651;-35
2022/10/27 10:20:39;;;;;;;3.35;1.30;;;;;;;32.17;17.29;94511.84;5050502;28;20032;-35
2022/10/27 10:23:28;;;;;;;5.80;2.20;;;;;;;31.97;17.01;94511.22;5033214;28;20029;-35
2022/10/27 10:25:56;;;;;;;2.28;1.20;;;;;;;31.69;18.20;94496.03;5031774;28;20537;-35
2022/10/27 10:28:42;;;;;;;27.38;3.55;;;;;;;32.15;17.32;94497.50;5050050;28;20492;-35
2022/10/27 10:31:11;;;;;;;2.17;1.02;;;;;;;31.32;17.62;94508.38;5032091;28;20060;-34
2022/10/27 10:33:37;;;;;;;;;;;;;;;31.47;16.58;94492.50;5050824;28;20501;-34
2022/10/27 10:36:24;;;;;;;2.08;1.17;;;;;;;31.50;16.96;94496.88;5032535;28;19916;-35
2022/10/27 10:38:52;;;;;;;2.17;1.50;;;;;;;31.65;17.54;94495.91;5050250;28;20064;-35
2022/10/27 10:41:20;;;;;;;6.30;1.50;;;;;;;31.69;17.43;94498.91;5032450;28;20053;-35
2022/10/27 10:43:47;;;;;;;1.13;1.02;;;;;;;31.21;17.25;94498.03;5050412;28;20094;-34
2022/10/27 10:46:21;;;;;;;4.65;3.92;;;;;;;31.41;17.63;94493.00;5032823;28;20033;-35
2022/10/27 10:48:53;;;;;;;5.00;3.63;;;;;;;31.49;18.20;94493.28;5049974;28;20060;-35
2022/10/27 10:51:38;;;;;;;6.53;4.07;;;;;;;31.69;17.62;94498.91;5050334;28;20035;-35
2022/10/27 10:54:07;;;;;;;1.60;1.15;;;;;;;31.92;17.29;94495.34;5050156;28;20029;-35
2022/10/27 10:56:33;;;;;;;;;;;;;;;31.77;17.86;94496.31;5050644;28;20021;-35
2022/10/27 10:59:13;;;;;;;20.65;11.32;;;;;;;31.62;17.80;94486.56;5032572;28;19908;-35
2022/10/27 11:01:42;;;;;;;14.93;8.65;;;;;;;31.91;17.18;94486.06;5056050;28;20020;-35
2022/10/27 11:04:20;;;;;;;9.00;6.80;;;;;;;31.40;17.78;94483.72;5069871;28;20087;-35
2022/10/27 11:07:05;;;;;;;27.13;18.10;;;;;;;31.55;17.66;94481.34;5052639;28;20029;-35
2022/10/27 11:10:01;;;;;;;28.80;20.38;;;;;;;31.52;17.31;94488.34;5070166;28;20058;-35
2022/10/27 11:12:34;;;;;;;4.70;2.05;;;;;;;31.80;17.10;94483.53;5055408;28;20521;-35
2022/10/27 11:15:04;;;;;;;5.47;3.42;;;;;;;31.86;17.03;94483.75;5052323;28;20103;-35
2022/10/27 11:18:02;;;;;;;9.57;5.07;;;;;;;31.64;17.43;94474.47;5051998;28;20020;-35
2022/10/27 11:20:42;;;;;;;25.92;14.50;;;;;;;31.76;17.00;94474.84;5051981;28;20516;-35
2022/10/27 11:23:16;;;;;;;21.00;13.45;;;;;;;31.95;17.18;94465.47;5069880;28;20538;-35
2022/10/27 11:25:41;;;;;;;7.85;5.93;;;;;;;31.98;16.73;94464.88;5061716;28;20464;-35
2022/10/27 11:28:36;;;;;;;15.45;11.35;;;;;;;31.68;17.23;94469.63;5033192;28;20072;-35
2022/10/27 11:31:08;;;;;;;8.90;8.00;;;;;;;30.71;17.84;94474.19;5069524;28;20052;-35
2022/10/27 11:33:46;;;;;;;6.70;5.03;;;;;;;30.25;18.74;94476.09;5056023;28;20109;-34
2022/10/27 11:36:18;;;;;;;5.50;4.22;;;;;;;30.17;18.91;94469.38;5055702;28;20078;-35
2022/10/27 11:39:03;;;;;;;4.70;3.42;;;;;;;30.35;18.54;94472.91;5055730;28;20047;-35